Latest Coastal Weather Observations for Mackay

IDQ60701

Issued at 2:52 am EST Friday 30 September 2016 (issued every 10 minutes, with the page automatically refreshed every 10 minutes)

About coastal observations | Map of coastal stations | Coastal observations for QLD | Marine services | Other Formats
Station Details ID: 033119 Name: MACKAY M.O Lat: -21.12 Lon: 149.22 Height: 30.26 m
Data from the previous 72 hours. | See also: Recent months at Mackay
Date/Time
EST
Temp
°C
Wind Pressure Rain since
9am
mm
Weather Cloud Vis
km
Sea
Height
m
Swell
Dir  Spd
kts
Gust
kts
hPa Trend Height
m
Period
s
Dir
30/02:30am 23.2 NNW 7 10 1008.5 - 0.0 - Partly cloudy - - - - -
30/02:00am 23.3 NNW 10 15 1008.6 - 0.0 - Partly cloudy - - - - -
30/01:52am 23.4 NNW 10 15 1008.5 - 0.0 - Partly cloudy - - - - -
30/01:30am 23.4 NNW 8 13 1008.7 - 0.0 - Partly cloudy - - - - -
30/01:09am 23.6 NNW 9 18 1008.8 - 0.0 - Partly cloudy - - - - -
30/01:00am 23.4 NNW 9 14 1008.8 - 0.0 - Partly cloudy - - - - -
30/12:30am 23.4 NW 5 8 1009.2 - 0.0 - Partly cloudy - - - - -
30/12:00am 23.5 NNW 6 11 1009.4 - 0.0 - Cloudy - - - - -
 
Date/Time
EST
Temp
°C
Wind Pressure Rain since
9am
mm
Weather Cloud Vis
km
Sea
Height
m
Swell
Dir  Spd
kts
Gust
kts
hPa Trend Height
m
Period
s
Dir
29/11:30pm 23.6 NNW 8 12 1009.4 - 0.0 - Partly cloudy - - - - -
29/11:00pm 23.7 NNW 9 15 1009.5 - 0.0 - Partly cloudy - - - - -
29/10:50pm 23.7 NNW 11 18 1009.7 - 0.0 - Partly cloudy - - - - -
29/10:36pm 23.9 NNW 9 20 1009.6 - 0.0 - Partly cloudy - - - - -
29/10:30pm 24.0 NNW 11 20 1009.7 - 0.0 - Partly cloudy - - - - -
29/10:00pm 24.0 N 11 19 1009.3 - 0.0 - Partly cloudy - - - - -
29/09:30pm 24.3 N 9 14 1009.4 - 0.0 - Partly cloudy - - - - -
29/09:00pm 24.2 N 8 13 1008.9 F 0.0 - Cloudy - - - - -
29/08:30pm 24.1 N 8 12 1009.1 - 0.0 - Partly cloudy - - - - -
29/08:00pm 24.0 N 9 16 1008.6 - 0.0 - Partly cloudy - - - - -
29/07:30pm 23.8 N 10 14 1008.5 - 0.0 - Partly cloudy - - - - -
29/07:00pm 23.8 NNW 11 19 1008.1 - 0.0 - Partly cloudy - - - - -
29/06:30pm 23.6 NNW 10 17 1007.8 - 0.0 - Partly cloudy - - - - -
29/06:00pm 23.6 N 10 16 1007.6 R 0.0 - Cloudy - - - - -
29/05:30pm 24.4 N 10 16 1007.2 - 0.0 - Partly cloudy - - - - -
29/05:00pm 24.6 N 10 18 1006.6 - 0.0 - Partly cloudy - - - - -
29/04:30pm 24.9 N 10 18 1006.5 - 0.0 - Partly cloudy - - - - -
29/04:00pm 25.2 N 9 15 1006.5 - 0.0 - Partly cloudy - - - - -
29/03:30pm 25.5 N 11 16 1006.7 - 0.0 - Partly cloudy - - - - -
29/03:00pm 25.6 N 9 16 1006.9 F 0.0 - Partly cloudy - - - - -
29/02:30pm 25.5 N 9 15 1007.4 - 0.0 - Partly cloudy - - - - -
29/02:00pm 24.2 N 6 9 1008.0 - 0.0 - Cloudy - - - - -
29/01:30pm 23.5 N 6 10 1008.4 - 0.0 - Cloudy - - - - -
29/01:00pm 23.1 N 4 6 1009.2 - 0.0 - Partly cloudy - - - - -
29/12:30pm 22.9 N 5 8 1009.4 - 0.0 - Partly cloudy - - - - -
29/12:00pm 23.5 NNW 3 5 1010.2 F 0.0 - Cloudy - - - - -
29/11:30am 24.2 NNW 4 6 1010.7 - 0.0 - Cloudy - - - - -
29/11:00am 24.1 N 5 8 1010.8 - 0.0 - Cloudy - - - - -
29/10:30am 23.7 N 5 7 1011.0 - 0.0 - Cloudy - - - - -
29/10:00am 24.2 N 5 6 1011.2 - 0.0 - Cloudy - - - - -
29/09:30am 24.2 NNW 3 5 1011.7 - 0.0 - Partly cloudy - - - - -
29/09:00am 23.2 WSW 3 5 1011.9 F 0.0 - Cloudy - - - - -
29/08:30am 21.0 WSW 6 7 1012.1 - 0.0 - Partly cloudy - - - - -
29/08:00am 20.5 WSW 4 6 1011.9 - 0.0 - - - - - - -
29/07:30am 20.1 W 4 6 1011.7 - 0.0 - - - - - - -
29/07:00am 19.4 SW 5 6 1011.5 - 0.0 - - - - - - -
29/06:30am 18.7 WSW 6 7 1011.4 - 0.0 - Partly cloudy - - - - -
29/06:00am 17.6 WSW 7 10 1011.5 F 0.0 - - - - - - -
29/05:30am 17.8 WSW 6 8 1011.2 - 0.0 - Partly cloudy - - - - -
29/05:00am 17.5 SW 6 7 1011.0 - 0.0 - - - - - - -
29/04:30am 17.8 WSW 6 8 1011.0 - 0.0 - - - - - - -
29/04:00am 17.8 WSW 5 7 1010.8 - 0.0 - - - - - - -
29/03:30am 17.5 SW 6 8 1011.0 - 0.0 - - - - - - -
29/03:00am 17.8 SW 7 11 1011.4 - 0.0 - Partly cloudy - - - - -
29/02:30am 18.2 WSW 7 9 1011.2 - 0.0 - Partly cloudy - - - - -
29/02:00am 18.5 WSW 6 8 1011.4 - 0.0 - Partly cloudy - - - - -
29/01:30am 18.5 WSW 6 7 1011.5 - 0.0 - Partly cloudy - - - - -
29/01:00am 18.5 WSW 5 6 1011.7 - 0.0 - - - - - - -
29/12:30am 18.6 WSW 6 7 1012.2 - 0.0 - - - - - - -
29/12:00am 18.5 WSW 6 7 1012.4 - 0.0 - - - - - - -
 
Date/Time
EST
Temp
°C
Wind Pressure Rain since
9am
mm
Weather Cloud Vis
km
Sea
Height
m
Swell
Dir  Spd
kts
Gust
kts
hPa Trend Height
m
Period
s
Dir
28/11:30pm 19.1 WSW 4 5 1012.3 - 0.0 - - - - - - -
28/11:00pm 19.5 WSW 4 5 1012.5 - 0.0 - - - - - - -
28/10:30pm 20.4 N 2 4 1012.8 - 0.0 - - - - - - -
28/10:00pm 21.2 NNW 4 5 1013.0 - 0.0 - - - - - - -
28/09:30pm 21.4 NNE 4 8 1013.0 - 0.0 - - - - - - -
28/09:00pm 21.1 NE 5 7 1012.9 F 0.0 - - - - - - -
28/08:30pm 21.4 NE 4 8 1013.2 - 0.0 - - - - - - -
28/08:00pm 21.3 NE 5 10 1012.8 - 0.0 - - - - - - -
28/07:30pm 21.9 ENE 5 9 1013.0 - 0.0 - - - - - - -
28/07:00pm 21.9 ENE 5 8 1012.8 - 0.0 - - - - - - -
28/06:30pm 22.5 ENE 7 10 1012.5 - 0.0 - - - - - - -
28/06:00pm 22.5 E 6 10 1012.2 F 0.0 - - - - - - -
28/05:30pm 22.9 E 7 10 1012.1 - 0.0 - - - - - - -
28/05:00pm 23.4 E 8 13 1012.0 - 0.0 - - - - - - -
28/04:30pm 23.7 ESE 7 11 1011.7 - 0.0 - - - - - - -
28/04:00pm 23.9 E 8 13 1011.6 - 0.0 - - - - - - -
28/03:30pm 24.2 ESE 7 10 1011.6 - 0.0 - - - - - - -
28/03:00pm 24.5 E 8 12 1011.8 F 0.0 - - - - - - -
28/02:30pm 24.2 ESE 7 11 1012.0 - 0.0 - - - - - - -
28/02:00pm 24.8 ESE 7 11 1012.7 - 0.0 - - - - - - -
28/01:30pm 25.4 ESE 6 10 1013.0 - 0.0 - - - - - - -
28/01:00pm 25.0 ESE 7 13 1013.5 - 0.0 - - - - - - -
28/12:30pm 25.4 SE 6 11 1014.0 - 0.0 - - - - - - -
28/12:00pm 25.0 ESE 7 11 1014.1 F 0.0 - - - - - - -
28/11:30am 24.6 SE 7 10 1014.7 - 0.0 - - - - - - -
28/11:00am 24.7 SE 6 10 1015.0 - 0.0 - - - - - - -
28/10:30am 25.5 SSE 8 14 1015.5 - 0.0 - - - - - - -
28/10:00am 25.1 SSE 9 14 1015.9 - 0.0 - - - - - - -
28/09:30am 24.9 SSE 7 11 1015.6 - 0.0 - - - - - - -
28/09:00am 24.1 S 8 11 1016.0 R 0.0 - - - - - - -
28/08:30am 23.3 S 7 11 1015.7 - 0.0 - - - - - - -
28/08:00am 22.0 SSW 6 9 1015.5 - 0.0 - - - - - - -
28/07:30am 20.4 SSW 7 9 1014.9 - 0.0 - - - - - - -
28/07:00am 18.6 SW 6 8 1014.5 - 0.0 - Partly cloudy - - - - -
28/06:30am 17.2 SW 6 7 1014.3 - 0.0 - Partly cloudy - - - - -
28/06:00am 16.9 SW 7 9 1014.1 R 0.0 - - - - - - -
28/05:30am 17.0 SW 7 9 1014.1 - 0.0 - - - - - - -
28/05:00am 17.3 SW 7 9 1013.5 - 0.0 - - - - - - -
28/04:30am 17.8 WSW 7 8 1013.1 - 0.0 - - - - - - -
28/04:00am 17.9 SW 7 8 1012.8 - 0.0 - - - - - - -
28/03:30am 18.0 SW 7 8 1012.9 - 0.0 - - - - - - -
28/03:00am 18.5 SW 6 8 1012.9 - 0.0 - - - - - - -
28/02:30am 18.8 SW 6 7 1013.1 - 0.0 - Partly cloudy - - - - -
28/02:00am 18.9 SW 5 6 1013.1 - 0.0 - Partly cloudy - - - - -
28/01:30am 19.7 WSW 4 5 1013.6 - 0.0 - Partly cloudy - - - - -
28/01:00am 19.9 WSW 5 6 1013.9 - 0.0 - Partly cloudy - - - - -
28/12:30am 20.6 SW 4 5 1014.0 - 0.0 - Partly cloudy - - - - -
28/12:00am 20.7 WSW 5 6 1014.0 - 0.0 - Cloudy - - - - -
 
Date/Time
EST
Temp
°C
Wind Pressure Rain since
9am
mm
Weather Cloud Vis
km
Sea
Height
m
Swell
Dir  Spd
kts
Gust
kts
hPa Trend Height
m
Period
s
Dir
27/11:30pm 20.6 SW 5 5 1014.1 - 0.0 - Partly cloudy - - - - -
27/11:00pm 20.5 SSW 5 5 1014.2 - 0.0 - - - - - - -
27/10:30pm 21.0 SSW 4 5 1014.3 - 0.0 - - - - - - -
27/10:00pm 21.0 WSW 5 5 1014.6 - 0.0 - - - - - - -
27/09:30pm 21.5 SW 5 6 1014.7 - 0.0 - - - - - - -
27/09:00pm 21.9 SW 4 5 1014.3 F 0.0 - Partly cloudy - - - - -
27/08:30pm 22.3 WNW 4 5 1014.4 - 0.0 - - - - - - -
27/08:00pm 22.5 NNW 3 4 1014.0 - 0.0 - - - - - - -
27/07:30pm 23.0 CALM 0 0 1013.6 - 0.0 - - - - - - -
27/07:00pm 22.4 NNE 3 5 1013.0 - 0.0 - - - - - - -
27/06:30pm 23.1 ENE 5 6 1013.0 - 0.0 - - - - - - -
27/06:00pm 23.4 E 6 8 1012.7 R 0.0 - - - - - - -
27/05:30pm 24.2 ESE 6 10 1012.4 - 0.0 - - - - - - -
27/05:00pm 24.4 ESE 7 12 1012.1 - 0.0 - - - - - - -
27/04:30pm 24.9 ESE 8 13 1011.5 - 0.0 - - 10 - - - -
27/04:09pm 25.0 ESE 7 12 1011.6 - 0.0 - - 10 - - - -
27/04:00pm 25.0 ESE 8 12 1011.6 - 0.0 - - - - - - -
27/03:30pm 25.0 ESE 8 12 1011.6 - 0.0 - - 10 - - - -
27/03:00pm 25.1 E 8 12 1011.6 R 0.0 - Mostly clear 10 - - - -
27/02:30pm 25.1 ESE 8 13 1011.8 - 0.0 - Mostly clear 10 - - - -
27/02:00pm 25.6 ESE 7 13 1012.0 - 0.0 - Mostly clear 10 - - - -
27/01:30pm 25.5 ESE 9 14 1012.2 - 0.0 - - - - - - -
27/01:00pm 25.9 ESE 8 13 1012.6 - 0.0 - Mostly clear 10 - - - -
27/12:30pm 25.7 ESE 8 13 1013.0 - 0.0 - Mostly clear 10 - - - -
27/12:00pm 26.4 E 8 12 1013.2 F 0.0 - Mostly clear 10 - - - -
27/11:30am 25.6 E 7 10 1014.0 - 0.0 - Mostly clear 10 - - - -
27/11:00am 26.2 ENE 7 11 1014.2 - 0.0 - Mostly clear 10 - - - -
27/10:30am 26.9 ENE 6 9 1014.6 - 0.0 - - 10 - - - -
27/10:00am 26.9 E 5 8 1014.7 - 0.0 - - - - - - -
27/09:30am 26.3 WNW 4 7 1015.3 - 0.0 - - - - - - -
27/09:00am 25.1 NNW 5 7 1015.2 F 0.0 - - - - - - -
27/08:30am 23.9 NNW 5 8 1015.1 - 0.0 - - - - - - -
27/08:00am 22.1 WSW 4 6 1015.2 - 0.0 - - - - - - -
27/07:30am 20.3 WSW 4 6 1014.8 - 0.0 - - - - - - -
27/07:00am 18.8 SW 5 8 1014.8 - 0.0 - - - - - - -
27/06:30am 17.7 SW 5 7 1014.1 - 0.0 - - - - - - -
27/06:00am 17.6 W 6 8 1013.7 R 0.0 - - - - - - -
27/05:30am 17.6 SW 6 8 1013.5 - 0.0 - - - - - - -
27/05:00am 17.8 SW 5 7 1013.0 - 0.0 - - - - - - -
27/04:30am 18.6 W 6 7 1012.8 - 0.0 - - - - - - -
27/04:00am 18.4 WSW 6 7 1012.7 - 0.0 - - - - - - -
27/03:30am 18.2 WSW 6 8 1012.5 - 0.0 - - - - - - -
27/03:00am 18.1 WSW 7 9 1012.7 - 0.0 - Mostly clear - - - - -

Other Formats:

Comma delimited format used in spreadsheet applications
http://www.bom.gov.au/fwo/IDQ60701/IDQ60701.94367.axf

JavaScript Object Notation format (JSON) in row-major order
http://www.bom.gov.au/fwo/IDQ60701/IDQ60701.94367.json